Terminal Aerodrome Forecast
Issued by NWS

Home | Current Version | Previous Version | Text Only | Print | Product List | Glossary On
Versions: 1 2 3 4 5 6 7 8 9 10 11 12 13 14 15 16
000
FTUS46 KMTR 181900 AAA
TAFSTS
TAF AMD
KSTS 181921Z 1819/1918 18008KT 6SM -SHRA BR FEW010 BKN030 OVC045
      TEMPO 1819/1822 4SM BR BKN020
     FM182200 21008KT P6SM -SHRA SCT030 BKN050
     FM190000 23005KT P6SM SCT030
     FM190300 VRB03KT P6SM SCT020
     FM191000 00000KT P6SM OVC007=

USA.gov is the U.S. government's official web portal to all federal, state and local government web resources and services.